Current Weather

Chicago O'Hare International

Chicago, Illinois (KORD)

Report from: Monday, August 15, 2022 7:51 PM CDT
Current time: Monday, August 15, 2022 8:26 PM CDT

Nearby weather
Weather history
Weather forecast

Temperature21.7°C (71.1°F)
Dew point13.3°C (55.9°F)
Winds 7 kts (3.6 m/s, 8.1 mph) North-Northeast (20°)
Visibility10 mi. (16.1 km)
Clouds Scattered clouds 10,000 ft. (3,048 m)
Ceiling: Broken clouds 25,000 ft. (7,620 m)
Altimeter30.07 in.Hg (1018 mB)
Relative humidity59 %
Density altitude825 ft. (251 m)
Sea-level pressure101.8 kPa (1018 mB, 30.06 in.Hg)
Remarks Automated weather observing station with precipitation discriminator
Flight conditions Visual Meteorological Conditions
Raw dataKORD 160051Z 02007KT 10SM SCT100 BKN250 22/13 A3007 RMK AO2 SLP180 T02170133
An error has occurred. This application may no longer respond until reloaded. Reload 🗙